Latest Coastal Weather Observations for Brisbane Airport

IDQ60701

Issued at 1:42 pm EST Tuesday 26 May 2020 (issued every 10 minutes, with the page automatically refreshed every 10 minutes)

About coastal observations | Map of coastal stations | Coastal observations for QLD | Marine services | Other Formats
Station Details ID: 040842 Name: BRISBANE AERO Lat: -27.39 Lon: 153.13 Height: 4.51 m
Data from the previous 72 hours. | See also: Recent months at Brisbane Airport
Date/Time
EST
Wind Sea
Height
m
Swell Vis
km
Cloud Weather Temp
°C
Press
hPa
Rain since
9am
mm
Dir  Spd
kts
Gust
kts
Height
m
Period
s
Dir
26/01:30pm NNE 8 9 - - - - 10 Clear - 23.6 1016.1 0.0
26/01:00pm WSW 5 8 - - - - 10 - - 23.5 1016.3 0.0
26/12:30pm SW 7 10 - - - - 10 - - 23.0 1016.6 0.0
26/12:00pm SW 7 14 - - - - 50 Mostly clear Smoke 22.7 1017.0 0.0
26/11:30am SW 7 10 - - - - 10 - - 22.4 1017.5 0.0
26/11:00am SW 7 10 - - - - 10 - - 21.7 1018.0 0.0
26/10:30am SW 8 12 - - - - 10 Mostly clear - 21.1 1018.3 0.0
26/10:00am SW 5 8 - - - - 10 - - 20.9 1018.6 0.0
26/09:30am WSW 6 8 - - - - 10 - - 19.7 1018.7 0.0
26/09:00am WSW 8 10 - - - - 50 Mostly clear Fine 18.5 1018.6 0.0
26/08:30am W 5 9 - - - - 10 - - 17.1 1018.5 0.0
26/08:00am W 5 6 - - - - 10 - - 15.2 1018.4 0.0
26/07:30am W 7 8 - - - - 10 - - 12.3 1018.1 0.0
26/07:00am W 4 6 - - - - 10 - - 9.9 1017.8 0.0
26/06:30am W 4 5 - - - - 10 - - 10.2 1017.5 0.0
26/06:00am W 3 4 - - - - 30 Clear Fine 10.1 1017.2 0.0
26/05:30am CALM 0 0 - - - - 10 - - 10.5 1016.8 0.0
26/05:00am W 3 5 - - - - 10 - - 10.0 1016.6 0.0
26/04:30am SSW 4 5 - - - - 10 - - 10.3 1016.5 0.0
26/04:00am CALM 0 0 - - - - 10 - - 10.4 1016.4 0.0
26/03:30am NW 1 4 - - - - 10 - - 10.6 1016.3 0.0
26/03:00am NW 7 8 - - - - 30 Clear Fine 11.8 1016.4 0.0
26/02:30am NNW 5 6 - - - - 10 - - 11.2 1016.6 0.0
26/02:00am NNW 5 6 - - - - 10 - - 10.4 1016.7 0.0
26/01:30am N 3 4 - - - - 10 - - 11.2 1016.7 0.0
26/01:00am N 4 5 - - - - 10 - - 12.6 1016.7 0.0
26/12:30am NNE 4 5 - - - - 10 - - 13.4 1016.7 0.0
26/12:00am NNW 4 4 - - - - 30 Clear Fine 13.0 1016.4 0.0
 
Date/Time
EST
Wind Sea
Height
m
Swell Vis
km
Cloud Weather Temp
°C
Press
hPa
Rain since
9am
mm
Dir  Spd
kts
Gust
kts
Height
m
Period
s
Dir
25/11:30pm WNW 4 5 - - - - 10 - - 13.7 1016.4 0.0
25/11:00pm NW 6 7 - - - - 10 - - 13.8 1016.3 0.0
25/10:30pm NNW 5 6 - - - - 10 - - 13.8 1016.3 0.0
25/10:00pm NNW 7 8 - - - - 10 - - 13.5 1016.2 0.0
25/09:30pm N 6 8 - - - - 10 - - 14.2 1016.3 0.0
25/09:00pm N 5 6 - - - - 30 Clear Fine 14.2 1016.2 0.0
25/08:30pm NW 5 6 - - - - 10 - - 16.2 1015.9 0.0
25/08:00pm NW 4 6 - - - - 10 - - 15.0 1016.0 0.0
25/07:30pm NNW 4 5 - - - - 10 - - 15.4 1015.8 0.0
25/07:00pm N 8 9 - - - - 10 - - 15.8 1015.5 0.0
25/06:30pm NNE 5 6 - - - - 10 - - 15.1 1015.1 0.0
25/06:00pm NE 3 4 - - - - 30 Mostly clear Fine 15.4 1014.8 0.0
25/05:30pm NE 4 4 - - - - 10 - - 15.8 1014.5 0.0
25/05:00pm NNE 5 6 - - - - 10 - - 17.1 1014.3 0.0
25/04:30pm NNE 6 8 - - - - 10 - - 19.4 1014.0 0.0
25/04:00pm NNE 8 9 - - - - 10 - - 21.0 1013.8 0.0
25/03:30pm NNE 7 8 - - - - 10 - - 21.5 1013.5 0.0
25/03:00pm NNE 8 9 - - - - 40 Mostly clear Fine 21.5 1013.5 0.0
25/02:30pm NNE 10 12 - - - - 10 - - 22.1 1013.5 0.0
25/02:00pm NE 9 10 - - - - 10 - - 22.0 1013.4 0.0
25/01:30pm NE 8 10 - - - - 10 - - 22.9 1013.3 0.0
25/01:00pm SSW 4 9 - - - - 10 - - 22.8 1013.4 0.0
25/12:30pm WSW 5 8 - - - - 10 - - 22.3 1013.8 0.0
25/12:00pm SW 7 11 - - - - 40 Mostly clear Fine 22.0 1014.3 0.0
25/11:30am SW 8 11 - - - - 10 Mostly clear - 21.5 1014.7 0.0
25/11:00am SW 10 13 - - - - 10 - - 20.5 1015.0 0.0
25/10:30am SW 9 13 - - - - 10 - - 20.1 1015.3 0.0
25/10:00am SW 10 14 - - - - 10 - - 19.5 1015.8 0.0
25/09:30am SW 9 13 - - - - 10 - - 18.9 1016.0 0.0
25/09:00am SW 9 12 - - - - 40 Mostly clear Fine 17.8 1015.9 0.0
25/08:30am SSW 7 9 - - - - 10 - - 16.6 1015.7 0.0
25/08:00am SW 7 8 - - - - 10 - - 14.9 1015.6 0.0
25/07:30am SW 6 7 - - - - 10 - - 12.9 1015.1 0.0
25/07:00am SW 7 8 - - - - 10 - - 10.1 1014.8 0.0
25/06:30am SW 6 7 - - - - 10 - - 10.2 1014.2 0.0
25/06:00am SW 4 4 - - - - 30 Mostly clear Fine 10.2 1014.1 0.0
25/05:30am SW 3 4 - - - - 10 - - 9.4 1013.8 0.0
25/05:00am SW 4 5 - - - - 10 - - 10.3 1013.3 0.0
25/04:30am WNW 3 4 - - - - 10 - - 9.6 1013.1 0.0
25/04:00am NW 5 5 - - - - 10 - - 10.2 1013.2 0.0
25/03:30am W 3 4 - - - - 10 - - 9.9 1012.8 0.0
25/03:00am NW 4 5 - - - - 30 Mostly clear Fine 9.8 1012.9 0.0
25/02:30am CALM 0 0 - - - - 10 - - 10.3 1012.7 0.0
25/02:00am W 3 5 - - - - 10 - - 12.6 1012.8 0.0
25/01:30am N 5 6 - - - - 10 - - 11.9 1012.7 0.0
25/01:00am W 8 9 - - - - 10 - - 12.6 1012.5 0.0
25/12:30am W 6 8 - - - - 10 - - 11.4 1012.4 0.0
25/12:00am WSW 9 9 - - - - 30 Clear Fine 12.1 1012.4 0.0
 
Date/Time
EST
Wind Sea
Height
m
Swell Vis
km
Cloud Weather Temp
°C
Press
hPa
Rain since
9am
mm
Dir  Spd
kts
Gust
kts
Height
m
Period
s
Dir
24/11:30pm WSW 8 11 - - - - 10 - - 12.9 1012.7 0.0
24/11:00pm WSW 10 13 - - - - 10 - - 13.7 1012.7 0.0
24/10:30pm WSW 13 17 - - - - 10 - - 13.9 1012.8 0.0
24/10:00pm WSW 12 17 - - - - 10 - - 14.3 1012.8 0.0
24/09:30pm WSW 13 17 - - - - 10 - - 14.3 1012.7 0.0
24/09:00pm W 13 18 - - - - 30 Mostly clear Fine 14.2 1012.6 0.0
24/08:30pm W 11 14 - - - - 10 - - 14.5 1012.1 0.0
24/08:00pm WSW 11 16 - - - - 10 - - 14.5 1011.8 0.0
24/07:30pm W 12 15 - - - - 10 - - 14.9 1011.6 0.0
24/07:00pm WSW 12 15 - - - - 10 - - 15.3 1011.5 0.0
24/06:30pm W 9 12 - - - - 10 - - 15.8 1011.4 0.0
24/06:00pm W 10 13 - - - - 30 Partly cloudy Fine 16.0 1011.0 0.0
24/05:30pm W 9 14 - - - - 10 - - 16.4 1010.6 0.0
24/05:00pm W 13 18 - - - - 10 - - 16.7 1010.3 0.0
24/04:30pm W 15 19 - - - - 10 - - 17.6 1010.0 0.0
24/04:00pm WNW 15 18 - - - - 10 - - 18.4 1009.5 0.0
24/03:30pm WSW 14 19 - - - - 10 - - 19.3 1009.2 0.0
24/03:00pm W 13 18 - - - - 40 Mostly clear Fine 20.0 1009.1 0.0
24/02:30pm W 14 18 - - - - 10 - - 19.8 1009.3 0.0
24/02:00pm W 12 16 - - - - 10 - - 20.2 1009.3 0.0
24/01:30pm W 11 15 - - - - 10 - - 19.8 1009.5 0.0
24/01:00pm W 11 16 - - - - 10 - - 19.7 1009.7 0.0
24/12:30pm W 12 17 - - - - 10 - - 19.3 1010.0 0.0
24/12:00pm WSW 11 15 - - - - 40 Mostly clear Fine 19.2 1010.3 0.0
24/11:30am WSW 10 15 - - - - 10 - - 19.1 1010.7 0.0
24/11:00am W 11 17 - - - - 10 - - 18.2 1010.9 0.0
24/10:30am WSW 13 18 - - - - 10 - - 17.6 1011.0 0.0
24/10:00am WSW 14 17 - - - - 10 Mostly clear - 17.1 1011.1 0.0
24/09:30am WSW 15 18 - - - - 10 Mostly clear - 15.8 1011.2 0.0
24/09:00am WSW 14 18 - - - - 40 Mostly clear Fine 15.3 1011.1 0.0
24/08:30am WSW 14 18 - - - - 10 Mostly clear - 14.0 1010.9 0.0
24/08:00am WSW 11 16 - - - - 10 Mostly clear - 12.9 1010.9 0.0
24/07:30am WSW 9 11 - - - - 10 Mostly clear - 11.9 1010.6 0.0
24/07:00am WSW 6 8 - - - - 10 Mostly clear - 10.5 1010.7 0.0
24/06:30am WSW 9 12 - - - - 10 Mostly clear - 9.9 1010.3 0.0
24/06:00am WSW 9 14 - - - - 30 Mostly clear Fine 10.8 1009.9 0.0
24/05:30am WSW 11 15 - - - - 10 - - 10.5 1009.6 0.0
24/05:00am WSW 13 17 - - - - 10 - - 10.7 1009.3 0.0
24/04:30am WSW 11 15 - - - - 10 - - 10.2 1009.3 0.0
24/04:00am WSW 12 15 - - - - 10 - - 10.3 1009.4 0.0
24/03:30am W 12 15 - - - - 10 - - 10.4 1009.7 0.0
24/03:00am W 12 16 - - - - 30 Clear Fine 10.5 1009.8 0.0
24/02:30am WSW 11 14 - - - - 10 - - 10.8 1009.7 0.0
24/02:00am W 11 16 - - - - 10 - - 10.3 1009.7 0.0
24/01:30am WSW 11 14 - - - - 10 - - 10.5 1009.9 0.0
24/01:00am WSW 13 16 - - - - 10 - - 10.5 1009.9 0.0
24/12:30am WSW 12 16 - - - - 10 - - 10.6 1010.0 0.0
24/12:00am WSW 10 14 - - - - 30 Partly cloudy Fine 10.9 1010.1 0.0
 
Date/Time
EST
Wind Sea
Height
m
Swell Vis
km
Cloud Weather Temp
°C
Press
hPa
Rain since
9am
mm
Dir  Spd
kts
Gust
kts
Height
m
Period
s
Dir
23/11:30pm WSW 13 18 - - - - 10 - - 10.7 1010.1 0.0
23/11:00pm WSW 15 20 - - - - 10 - - 11.7 1010.7 0.0
23/10:30pm WSW 12 16 - - - - 10 - - 11.6 1010.9 0.0
23/10:00pm WSW 13 17 - - - - 10 - - 11.6 1011.0 0.0
23/09:30pm W 15 18 - - - - 10 - - 12.2 1010.5 0.0
23/09:00pm W 15 21 - - - - 30 Mostly cloudy Fine 12.6 1010.9 0.0
23/08:30pm WSW 16 19 - - - - 10 - - 12.8 1010.4 0.0
23/08:00pm W 15 18 - - - - 10 - - 12.8 1009.9 0.0
23/07:30pm W 12 16 - - - - 10 - - 13.0 1009.9 0.0
23/07:00pm W 11 16 - - - - 10 - - 13.4 1009.6 0.0
23/06:30pm W 8 12 - - - - 10 - - 13.7 1009.5 0.0
23/06:00pm W 8 11 - - - - 50 Mostly cloudy Fine 13.7 1009.2 0.0
23/05:30pm WNW 7 9 - - - - 10 - - 13.6 1009.5 0.0
23/05:00pm WNW 8 11 - - - - 10 Mostly clear - 13.9 1009.7 0.0
23/04:30pm W 12 16 - - - - 10 Mostly clear - 14.1 1009.3 0.0
23/04:00pm W 11 15 - - - - 10 Mostly clear - 14.3 1009.3 0.0
23/03:30pm W 10 15 - - - - 10 Mostly clear - 14.4 1009.5 0.0
23/03:00pm W 14 18 - - - - 50 Mostly cloudy Fine 14.4 1009.7 0.0
23/02:30pm W 14 18 - - - - 10 - - 14.8 1009.3 0.0
23/02:00pm W 12 16 - - - - 10 - - 14.5 1009.0 0.0

Other formats

Comma delimited format used in spreadsheet applications
http://www.bom.gov.au/fwo/IDQ60701/IDQ60701.94578.axf

JavaScript Object Notation format (JSON) in row-major order
http://www.bom.gov.au/fwo/IDQ60701/IDQ60701.94578.json

Data quality

Most of these data are generated automatically and are frequently updated. Quality checks on data are not normally performed. It is possible for incorrect values to appear. Refer to information at About Latest Weather Observations and please check the disclaimer before using these data.